Time;durP1;ratioP1;P1;durP2;ratioP2;P2;SDS_P1;SDS_P2;PMS_P1;PMS_P2;Temp;Humidity;BMP_temperature;BMP_pressure;BME280_temperature;BME280_humidity;BME280_pressure;Samples;Min_cycle;Max_cycle;Signal;HPM_P1;HPM_P2
2022/06/27 00:03:45;;;;;;;4.18;2.63;;;;;;;21.85;76.12;99969.00;10349266;28;20049;-70
2022/06/27 00:08:48;;;;;;;3.05;2.47;;;;;;;21.95;76.77;99990.28;10346350;28;20049;-70
2022/06/27 00:13:49;;;;;;;;;;;;;;;21.93;77.46;99967.97;10353178;28;20057;-70
2022/06/27 00:18:51;;;;;;;6.32;3.13;;;;;;;21.94;78.65;99947.97;10343888;28;19975;-69
2022/06/27 00:23:52;;;;;;;4.20;2.70;;;;;;;21.58;81.01;99952.66;10344715;28;20343;-71
2022/06/27 00:28:54;;;;;;;4.25;3.15;;;;;;;21.77;81.34;99952.91;10342279;28;20056;-71
2022/06/27 00:33:55;;;;;;;5.22;3.20;;;;;;;21.86;80.67;99933.59;10343261;28;20056;-71
2022/06/27 00:38:56;;;;;;;3.63;3.30;;;;;;;21.91;78.99;99946.50;10343486;28;20535;-71
2022/06/27 00:43:58;;;;;;;3.67;3.38;;;;;;;21.92;79.57;99936.50;10352902;28;20790;-69
2022/06/27 00:48:59;;;;;;;3.60;3.30;;;;;;;21.86;80.06;99922.75;10341392;28;20089;-69
2022/06/27 00:54:02;;;;;;;3.95;3.40;;;;;;;21.84;81.90;99923.97;10344709;28;20183;-69
2022/06/27 00:59:03;;;;;;;4.00;3.58;;;;;;;21.77;82.17;99920.41;10347958;28;20053;-70
2022/06/27 01:04:04;;;;;;;3.33;3.00;;;;;;;21.69;79.48;99937.69;10350187;28;20137;-71
2022/06/27 01:09:06;;;;;;;3.53;3.13;;;;;;;21.64;82.94;99942.91;10345185;28;20049;-71
2022/06/27 01:14:07;;;;;;;4.47;3.90;;;;;;;21.37;82.60;100011.28;10345951;28;20049;-71
2022/06/27 01:19:11;;;;;;;3.83;3.47;;;;;;;21.20;84.86;100058.66;10343118;28;20053;-70
2022/06/27 01:24:12;;;;;;;4.70;4.30;;;;;;;21.08;86.12;100088.13;10347952;28;20527;-71
2022/06/27 01:29:15;;;;;;;4.75;4.35;;;;;;;20.97;88.05;100113.00;10342748;28;20058;-71
2022/06/27 01:34:17;;;;;;;6.63;4.68;;;;;;;20.91;88.65;100102.97;10346951;28;21068;-71
2022/06/27 01:39:21;;;;;;;6.13;5.43;;;;;;;21.04;89.06;100057.09;10341432;28;20045;-71
2022/06/27 01:44:29;;;;;;;4.63;3.95;;;;;;;21.21;85.86;100018.91;10352130;28;20048;-71
2022/06/27 01:49:32;;;;;;;4.97;4.57;;;;;;;21.32;86.36;99977.75;10352030;28;20048;-70
2022/06/27 01:54:35;;;;;;;5.75;4.30;;;;;;;21.37;86.45;99956.31;10347087;28;20082;-70
2022/06/27 01:59:37;;;;;;;4.60;4.20;;;;;;;21.39;83.53;99934.44;10365058;28;20049;-69
2022/06/27 02:04:40;;;;;;;4.55;4.07;;;;;;;21.45;83.83;99920.09;10353190;28;20499;-69
2022/06/27 02:09:42;;;;;;;3.88;3.47;;;;;;;21.23;86.22;99922.09;10350245;28;20049;-70
2022/06/27 02:14:45;;;;;;;5.80;4.15;;;;;;;21.29;88.10;99899.66;10353098;28;21050;-69
2022/06/27 02:19:47;;;;;;;3.92;3.63;;;;;;;21.23;87.81;99849.00;10358044;28;20738;-70
2022/06/27 02:24:48;;;;;;;4.20;2.80;;;;;;;21.17;87.78;99832.56;10353397;28;20181;-69
2022/06/27 02:29:50;;;;;;;4.35;3.40;;;;;;;21.15;87.75;99791.34;10352734;28;20554;-71
2022/06/27 02:34:53;;;;;;;4.35;3.10;;;;;;;21.00;88.66;99777.13;10347586;28;20050;-69
2022/06/27 02:39:56;;;;;;;3.05;2.83;;;;;;;20.96;88.50;99775.88;10354994;28;20037;-70
2022/06/27 02:44:59;;;;;;;3.13;2.20;;;;;;;20.90;87.68;99782.94;10359192;28;20045;-69
2022/06/27 02:50:00;;;;;;;3.20;2.00;;;;;;;20.73;87.75;99771.66;10350957;28;20099;-69
2022/06/27 02:55:13;;;;;;;2.03;1.83;;;;;;;20.69;88.31;99753.28;10350657;28;20056;-69
2022/06/27 03:00:16;;;;;;;2.13;1.92;;;;;;;20.54;87.59;99746.16;10348052;28;20062;-70
2022/06/27 03:05:17;;;;;;;3.57;2.40;;;;;;;20.44;88.97;99746.50;10350146;28;20538;-69
2022/06/27 03:10:19;;;;;;;2.50;2.30;;;;;;;20.28;89.04;99763.03;10348677;28;20588;-70
2022/06/27 03:15:21;;;;;;;2.05;1.90;;;;;;;20.33;90.33;99776.81;10351049;28;20042;-69
2022/06/27 03:20:22;;;;;;;2.53;2.33;;;;;;;20.38;88.90;99741.91;10354201;28;20053;-70
2022/06/27 03:25:24;;;;;;;2.47;2.28;;;;;;;20.41;89.92;99740.66;10349566;28;20046;-69
2022/06/27 03:30:25;;;;;;;2.33;2.13;;;;;;;20.45;90.20;99742.78;10347669;28;20049;-70
2022/06/27 03:35:27;;;;;;;2.80;2.13;;;;;;;20.46;87.50;99771.47;10346084;28;21063;-70
2022/06/27 03:40:28;;;;;;;3.00;2.53;;;;;;;20.45;87.89;99791.44;10340365;28;20094;-69
2022/06/27 03:45:30;;;;;;;3.47;2.05;;;;;;;20.40;88.60;99820.09;10346145;28;20611;-70
2022/06/27 03:50:31;;;;;;;3.00;2.67;;;;;;;20.48;89.22;99822.66;10344171;28;20133;-70
2022/06/27 03:55:34;;;;;;;3.22;2.65;;;;;;;20.53;89.58;99814.75;10350433;28;20061;-70
2022/06/27 04:00:35;;;;;;;3.45;2.63;;;;;;;20.58;89.42;99806.03;10357834;28;20537;-70
2022/06/27 04:05:37;;;;;;;2.50;2.28;;;;;;;20.59;87.93;99830.19;10342345;28;20056;-70
2022/06/27 04:10:38;;;;;;;2.30;2.10;;;;;;;20.51;88.31;99840.31;10345809;28;20659;-70
2022/06/27 04:15:40;;;;;;;4.32;1.90;;;;;;;20.65;89.09;99850.19;10311765;28;1061741;-69
2022/06/27 04:20:42;;;;;;;2.42;2.08;;;;;;;20.72;87.63;99813.22;10342545;28;20053;-70
2022/06/27 04:25:43;;;;;;;1.92;1.80;;;;;;;20.74;87.42;99831.97;10349247;28;20760;-69
2022/06/27 04:30:46;;;;;;;2.13;1.88;;;;;;;20.61;88.74;99838.94;10350335;28;20644;-69
2022/06/27 04:35:49;;;;;;;2.80;2.03;;;;;;;20.56;87.44;99845.97;10369452;28;20090;-71
2022/06/27 04:40:50;;;;;;;15.40;10.75;;;;;;;20.55;88.75;99855.13;10377964;28;20113;-70
2022/06/27 04:45:52;;;;;;;4.80;2.63;;;;;;;20.56;88.17;99827.88;10349289;28;20079;-69
2022/06/27 04:50:54;;;;;;;3.75;2.95;;;;;;;20.63;88.96;99819.81;10347767;28;20096;-69
2022/06/27 04:55:55;;;;;;;2.80;2.60;;;;;;;20.58;87.98;99874.50;10352018;28;20300;-68
2022/06/27 05:00:57;;;;;;;3.58;3.28;;;;;;;20.55;88.74;99888.41;10332876;28;20054;-67
2022/06/27 05:05:59;;;;;;;3.65;3.20;;;;;;;20.39;90.47;99878.72;10336096;28;20208;-65
2022/06/27 05:11:00;;;;;;;6.60;4.45;;;;;;;20.28;90.90;99871.16;10339717;28;20053;-68
2022/06/27 05:16:03;;;;;;;5.07;3.80;;;;;;;20.43;92.40;99880.00;10352376;28;20171;-65
2022/06/27 05:21:11;;;;;;;5.10;4.70;;;;;;;20.45;90.21;99885.22;10334808;28;20057;-68
2022/06/27 05:26:12;;;;;;;5.28;4.78;;;;;;;20.52;91.56;99894.19;10344242;28;20088;-67
2022/06/27 05:31:14;;;;;;;6.72;5.00;;;;;;;20.67;91.49;99910.34;10334094;28;20122;-68
2022/06/27 05:36:15;;;;;;;5.30;4.47;;;;;;;20.70;90.14;99918.06;10336585;28;20049;-69
2022/06/27 05:41:17;;;;;;;5.70;4.72;;;;;;;20.74;88.41;99907.69;10335158;28;20886;-67
2022/06/27 05:46:20;;;;;;;4.68;4.28;;;;;;;20.84;87.49;99930.63;10340494;28;20293;-67
2022/06/27 05:51:22;;;;;;;6.97;4.72;;;;;;;20.99;86.06;99924.28;10335328;28;20084;-67
2022/06/27 05:56:24;;;;;;;5.00;4.57;;;;;;;21.12;85.34;99947.84;10347020;28;20088;-68
2022/06/27 06:01:25;;;;;;;4.40;4.00;;;;;;;21.17;84.87;99957.03;10353512;28;20406;-67
2022/06/27 06:06:28;;;;;;;4.13;3.60;;;;;;;21.18;84.83;99955.16;10354233;28;20055;-69
2022/06/27 06:11:30;;;;;;;4.20;3.80;;;;;;;21.05;83.15;99937.00;10345067;28;20060;-70
2022/06/27 06:16:32;;;;;;;4.40;3.40;;;;;;;21.22;83.69;99937.50;10360752;28;20629;-68
2022/06/27 06:21:34;;;;;;;5.07;3.88;;;;;;;21.45;81.54;99980.50;10355763;28;20081;-68
2022/06/27 06:26:36;;;;;;;4.20;3.80;;;;;;;21.31;81.07;99992.31;10348609;28;20803;-68
2022/06/27 06:31:40;;;;;;;5.00;3.92;;;;;;;21.35;81.03;99988.16;10354764;28;20053;-68
2022/06/27 06:36:44;;;;;;;7.47;5.22;;;;;;;21.37;83.03;99991.50;10350750;28;20143;-69
2022/06/27 06:41:45;;;;;;;5.18;3.67;;;;;;;21.49;81.73;99987.19;10345211;28;20650;-70
2022/06/27 06:46:47;;;;;;;3.58;2.95;;;;;;;21.61;79.97;99973.09;10345136;28;20100;-69
2022/06/27 06:51:50;;;;;;;3.35;2.63;;;;;;;21.52;78.97;99996.81;10351750;28;20053;-69
2022/06/27 06:56:52;;;;;;;3.00;2.80;;;;;;;21.53;79.06;99993.91;10345767;28;20124;-69
2022/06/27 07:01:53;;;;;;;2.60;2.40;;;;;;;21.54;80.68;99998.28;10341875;28;20053;-68
2022/06/27 07:06:56;;;;;;;2.50;2.20;;;;;;;21.64;80.26;99989.78;10347334;28;20157;-68
2022/06/27 07:11:57;;;;;;;4.85;3.03;;;;;;;21.81;80.39;99990.25;10346832;28;20168;-69
2022/06/27 07:16:59;;;;;;;3.10;2.63;;;;;;;22.02;79.36;99994.69;10331018;28;20587;-68
2022/06/27 07:22:01;;;;;;;4.40;2.90;;;;;;;22.11;76.57;99989.91;10344751;28;20135;-68
2022/06/27 07:27:02;;;;;;;4.53;2.80;;;;;;;22.19;75.89;99981.59;10334417;28;20847;-68
2022/06/27 07:32:05;;;;;;;4.70;2.63;;;;;;;22.36;74.00;100008.34;10344096;28;20060;-69
2022/06/27 07:37:06;;;;;;;3.37;2.30;;;;;;;22.50;73.52;100014.59;10347039;28;21736;-68
2022/06/27 07:42:08;;;;;;;2.38;1.77;;;;;;;22.54;72.94;100030.25;10339818;28;20341;-68
2022/06/27 07:47:09;;;;;;;2.72;2.10;;;;;;;22.68;73.85;100032.97;10337645;28;21113;-69
2022/06/27 07:52:12;;;;;;;2.38;2.00;;;;;;;22.87;71.38;100034.00;10340211;28;20055;-70
2022/06/27 07:57:14;;;;;;;3.22;2.22;;;;;;;23.05;70.70;100038.78;10341600;28;20222;-68
2022/06/27 08:02:15;;;;;;;3.30;2.45;;;;;;;23.15;69.40;100031.09;10339089;28;20057;-71
2022/06/27 08:07:17;;;;;;;4.60;2.63;;;;;;;22.89;70.33;100037.34;10341451;28;20132;-70
2022/06/27 08:12:18;;;;;;;6.93;2.75;;;;;;;22.75;70.90;100040.06;10341222;28;20112;-70
2022/06/27 08:17:23;;;;;;;3.55;2.33;;;;;;;22.71;71.63;100046.09;10305681;28;20057;-70
2022/06/27 08:22:25;;;;;;;3.25;1.77;;;;;;;22.69;71.51;100050.91;10338538;28;20057;-70
2022/06/27 08:27:26;;;;;;;4.22;2.17;;;;;;;22.93;70.25;100030.44;10344004;28;20069;-69
2022/06/27 08:32:28;;;;;;;3.60;2.70;;;;;;;23.20;70.91;100049.47;10345923;28;20056;-69
2022/06/27 08:37:30;;;;;;;2.75;1.90;;;;;;;23.03;71.81;100024.59;10347896;28;20064;-69
2022/06/27 08:42:31;;;;;;;2.85;2.50;;;;;;;22.99;72.50;100012.50;10341337;28;20233;-68
2022/06/27 08:47:33;;;;;;;3.80;2.53;;;;;;;22.89;72.33;100046.31;10343270;28;20072;-70
2022/06/27 08:52:39;;;;;;;6.05;2.55;;;;;;;23.21;70.64;100045.69;10338780;28;20064;-68
2022/06/27 08:57:42;;;;;;;3.58;2.13;;;;;;;23.40;70.15;100065.69;10346310;28;20057;-67
2022/06/27 09:02:44;;;;;;;3.60;2.17;;;;;;;23.24;70.53;100070.53;10332809;28;20114;-69
2022/06/27 09:07:49;;;;;;;2.33;2.13;;;;;;;22.64;72.18;100092.22;10340726;28;20119;-68
2022/06/27 09:13:15;;;;;;;3.40;1.98;;;;;;;22.37;73.50;100085.94;10339826;28;20427;-70
2022/06/27 09:18:20;;;;;;;4.22;2.05;;;;;;;22.31;74.03;100094.81;10337371;28;20678;-68
2022/06/27 09:23:32;;;;;;;3.33;1.92;;;;;;;22.24;74.59;100090.22;10338807;28;20538;-66
2022/06/27 09:28:43;;;;;;;4.90;2.08;;;;;;;22.51;73.37;100090.31;10343138;28;20570;-69
2022/06/27 09:34:00;;;;;;;2.42;1.73;;;;;;;22.80;71.50;100096.41;10344601;28;20050;-66
2022/06/27 09:39:04;;;;;;;3.10;2.13;;;;;;;23.06;70.14;100083.88;10342208;28;21972;-68
2022/06/27 09:44:10;;;;;;;4.15;1.80;;;;;;;23.49;68.65;100105.16;10340538;28;20087;-68
2022/06/27 09:49:12;;;;;;;3.55;1.80;;;;;;;23.87;68.50;100090.88;10335256;28;20758;-68
2022/06/27 09:54:22;;;;;;;1.93;1.63;;;;;;;23.96;67.15;100089.59;10341626;28;20088;-67
2022/06/27 09:59:23;;;;;;;2.72;1.90;;;;;;;24.06;65.31;100082.84;10342867;28;20102;-67
2022/06/27 10:04:25;;;;;;;3.25;1.80;;;;;;;24.30;63.75;100092.97;10348809;28;20219;-67
2022/06/27 10:09:29;;;;;;;2.83;1.33;;;;;;;24.42;63.25;100092.28;10353616;28;20049;-70
2022/06/27 10:14:32;;;;;;;1.98;1.50;;;;;;;25.03;61.53;100099.81;10367033;28;20342;-69
2022/06/27 10:19:33;;;;;;;2.58;0.98;;;;;;;25.14;60.70;100079.19;10348284;28;20057;-68
2022/06/27 10:24:35;;;;;;;2.63;1.00;;;;;;;25.72;58.78;100091.59;10349376;28;20584;-69
2022/06/27 10:29:42;;;;;;;1.05;0.73;;;;;;;25.74;57.93;100097.66;10340670;28;20126;-70
2022/06/27 10:34:46;;;;;;;3.00;0.80;;;;;;;26.07;56.33;100099.19;10345971;28;20056;-69
2022/06/27 10:39:48;;;;;;;1.67;0.60;;;;;;;26.15;53.16;100119.03;10344876;28;20083;-69
2022/06/27 10:45:23;;;;;;;1.70;0.80;;;;;;;25.58;53.33;100129.09;10347495;28;20049;-70
2022/06/27 10:50:28;;;;;;;3.10;0.73;;;;;;;26.01;52.97;100116.47;10353228;28;20938;-70
2022/06/27 10:55:30;;;;;;;0.57;0.50;;;;;;;26.15;49.67;100100.75;10351686;28;20056;-69
2022/06/27 11:00:43;;;;;;;2.80;0.77;;;;;;;26.43;51.36;100085.69;10341082;28;20050;-68
2022/06/27 11:06:13;;;;;;;1.50;0.73;;;;;;;26.59;50.24;100085.03;10342496;28;20801;-68
2022/06/27 11:11:18;;;;;;;2.50;0.60;;;;;;;26.26;51.75;100093.69;10356406;28;20732;-69
2022/06/27 11:16:40;;;;;;;1.52;1.13;;;;;;;25.94;51.64;100104.75;10339176;28;20055;-70
2022/06/27 11:21:41;;;;;;;1.50;1.40;;;;;;;25.25;53.04;100102.13;10339373;28;20061;-69
2022/06/27 11:26:48;;;;;;;1.45;1.27;;;;;;;24.85;55.32;100113.38;10347013;28;20065;-69
2022/06/27 11:32:00;;;;;;;1.92;1.52;;;;;;;24.52;56.83;100122.56;10341049;28;20053;-70
2022/06/27 11:37:18;;;;;;;4.70;1.80;;;;;;;24.18;58.51;100160.81;10333064;28;20049;-69
2022/06/27 11:42:30;;;;;;;3.55;2.47;;;;;;;23.95;59.70;100130.59;10348097;28;20046;-68
2022/06/27 11:47:34;;;;;;;3.22;2.33;;;;;;;23.72;60.56;100136.47;10337349;28;20057;-69
2022/06/27 11:52:47;;;;;;;3.20;1.73;;;;;;;23.69;59.15;100143.16;10347286;28;20714;-71
2022/06/27 11:57:50;;;;;;;4.65;1.95;;;;;;;23.78;59.25;100151.91;10339483;28;20044;-70
2022/06/27 12:03:02;;;;;;;1.88;1.50;;;;;;;23.91;58.60;100151.91;10332591;28;20506;-70
2022/06/27 12:08:06;;;;;;;4.40;2.20;;;;;;;24.13;58.13;100159.78;10341005;28;20087;-71
2022/06/27 12:13:09;;;;;;;2.28;2.08;;;;;;;24.74;56.97;100161.19;10325255;28;20303;-70
2022/06/27 12:18:12;;;;;;;2.78;1.77;;;;;;;24.97;56.94;100171.50;10341563;28;20747;-70
2022/06/27 12:23:14;;;;;;;2.33;1.58;;;;;;;25.34;55.33;100168.94;10335356;28;20103;-71
2022/06/27 12:28:15;;;;;;;2.38;1.70;;;;;;;25.77;54.21;100137.25;10350922;28;20045;-70
2022/06/27 12:33:16;;;;;;;2.75;1.52;;;;;;;26.09;52.47;100129.81;10341007;28;20411;-70
2022/06/27 12:38:18;;;;;;;2.00;1.80;;;;;;;25.89;52.20;100126.44;10349823;28;20110;-70
2022/06/27 12:43:19;;;;;;;1.88;1.50;;;;;;;25.33;53.31;100137.28;10337636;28;20049;-70
2022/06/27 12:48:21;;;;;;;2.53;1.48;;;;;;;24.93;54.11;100159.38;10344591;28;20059;-72
2022/06/27 12:53:22;;;;;;;2.63;1.27;;;;;;;25.22;54.60;100165.22;10325434;28;20060;-70
2022/06/27 12:58:25;;;;;;;2.83;1.20;;;;;;;25.67;53.05;100165.06;10344063;28;20529;-73
2022/06/27 13:03:27;;;;;;;2.92;1.30;;;;;;;25.79;51.52;100164.28;10342243;28;20060;-71
2022/06/27 13:08:28;;;;;;;2.72;1.50;;;;;;;25.49;51.75;100145.94;10338102;28;20046;-70
2022/06/27 13:13:30;;;;;;;1.83;1.20;;;;;;;26.07;51.12;100156.44;10343393;28;20196;-70
2022/06/27 13:18:32;;;;;;;2.28;1.10;;;;;;;26.32;49.97;100143.75;10345357;28;20054;-70
2022/06/27 13:23:33;;;;;;;1.73;1.33;;;;;;;26.11;50.09;100154.94;10336547;28;20188;-71
2022/06/27 13:28:54;;;;;;;3.42;1.20;;;;;;;26.18;51.88;100159.47;10333823;28;20354;-69
2022/06/27 13:33:56;;;;;;;1.08;0.90;;;;;;;26.20;50.72;100160.09;10339760;28;20049;-71
2022/06/27 13:38:57;;;;;;;1.70;1.20;;;;;;;26.00;51.05;100169.34;10339024;28;20511;-72
2022/06/27 13:43:59;;;;;;;1.90;1.00;;;;;;;25.93;49.97;100174.84;10341822;28;20380;-71
2022/06/27 13:49:00;;;;;;;2.10;1.08;;;;;;;26.09;49.17;100188.94;10348797;28;20060;-71
2022/06/27 13:54:02;;;;;;;1.38;0.90;;;;;;;25.89;49.85;100202.78;10342018;28;20231;-70
2022/06/27 13:59:04;;;;;;;2.63;1.05;;;;;;;25.81;48.09;100205.81;10347629;28;20599;-70
2022/06/27 14:04:06;;;;;;;2.70;1.00;;;;;;;25.75;49.12;100208.38;10348239;28;20391;-71
2022/06/27 14:09:07;;;;;;;2.70;1.13;;;;;;;25.70;48.25;100229.16;10355876;28;20077;-70
2022/06/27 14:14:09;;;;;;;2.15;1.00;;;;;;;25.60;49.64;100210.63;10348509;28;20072;-72
2022/06/27 14:19:11;;;;;;;1.25;0.50;;;;;;;25.78;46.06;100234.34;10342292;28;21054;-70
2022/06/27 14:24:12;;;;;;;1.70;0.33;;;;;;;25.65;45.70;100229.03;10357578;28;20339;-70
2022/06/27 14:29:14;;;;;;;1.55;0.40;;;;;;;25.86;45.53;100222.31;10344051;28;20113;-71
2022/06/27 14:34:16;;;;;;;1.48;0.40;;;;;;;26.00;44.59;100223.03;10345632;28;20138;-70
2022/06/27 14:39:18;;;;;;;1.10;0.47;;;;;;;25.93;44.53;100225.81;10338572;28;20136;-69
2022/06/27 14:44:20;;;;;;;2.08;0.50;;;;;;;25.98;45.74;100241.50;10346543;28;20057;-70
2022/06/27 14:49:22;;;;;;;1.73;0.82;;;;;;;26.05;46.46;100237.66;10331923;28;20456;-70
2022/06/27 14:54:23;;;;;;;1.13;0.80;;;;;;;25.96;46.32;100240.88;10334446;28;20064;-70
2022/06/27 14:59:25;;;;;;;0.75;0.60;;;;;;;25.63;46.56;100237.41;10374063;28;20234;-71
2022/06/27 15:04:27;;;;;;;1.48;0.77;;;;;;;25.56;46.52;100242.09;10363347;28;20046;-69
2022/06/27 15:09:28;;;;;;;1.17;0.80;;;;;;;25.49;47.77;100233.13;10339289;28;20054;-69
2022/06/27 15:14:30;;;;;;;0.63;0.63;;;;;;;25.44;48.37;100236.53;10342095;28;20053;-70
2022/06/27 15:19:31;;;;;;;0.80;0.80;;;;;;;25.41;49.13;100243.25;10332849;28;20107;-70
2022/06/27 15:24:33;;;;;;;1.42;0.88;;;;;;;25.19;48.50;100247.38;10349673;28;20045;-69
2022/06/27 15:29:34;;;;;;;0.95;0.90;;;;;;;24.81;48.52;100242.78;10348540;28;20564;-69
2022/06/27 15:34:36;;;;;;;1.42;0.90;;;;;;;24.62;49.35;100239.09;10347875;28;20129;-69
2022/06/27 15:39:38;;;;;;;1.90;1.02;;;;;;;24.42;49.89;100244.63;10339332;28;20203;-70
2022/06/27 15:44:39;;;;;;;1.83;1.13;;;;;;;24.27;50.85;100242.16;10351237;28;20151;-69
2022/06/27 15:49:41;;;;;;;1.42;1.05;;;;;;;24.26;50.90;100233.16;10343367;28;20151;-68
2022/06/27 15:54:42;;;;;;;1.42;1.00;;;;;;;24.20;50.48;100242.19;10348271;28;20704;-69
2022/06/27 15:59:45;;;;;;;1.90;1.00;;;;;;;24.28;50.05;100230.22;10340894;28;20115;-70
2022/06/27 16:04:47;;;;;;;0.98;0.70;;;;;;;24.27;50.52;100248.41;10337028;28;20461;-70
2022/06/27 16:09:48;;;;;;;1.33;0.95;;;;;;;24.37;50.22;100258.03;10346568;28;20475;-70
2022/06/27 16:14:50;;;;;;;1.15;0.63;;;;;;;24.50;49.50;100260.69;10342537;28;20049;-70
2022/06/27 16:19:51;;;;;;;0.93;0.75;;;;;;;24.58;49.18;100260.47;10353042;28;20625;-70
2022/06/27 16:25:16;;;;;;;0.73;0.65;;;;;;;24.56;50.01;100253.53;10359452;28;20398;-70
2022/06/27 16:35:37;;;;;;;1.08;0.70;;;;;;;24.35;48.11;100267.22;10337411;28;20056;-69
2022/06/27 16:40:39;;;;;;;1.10;0.60;;;;;;;24.32;48.48;100264.09;10346280;28;20381;-69
2022/06/27 16:45:46;;;;;;;2.17;1.35;;;;;;;24.30;48.62;100275.19;10325451;28;20635;-70
2022/06/27 16:50:49;;;;;;;0.75;0.35;;;;;;;24.16;48.53;100281.72;10336724;28;20055;-70
2022/06/27 16:55:51;;;;;;;0.75;0.60;;;;;;;24.11;48.72;100276.06;10341109;28;20060;-70
2022/06/27 17:00:52;;;;;;;1.65;0.60;;;;;;;24.02;48.37;100271.91;10335012;28;20240;-70
2022/06/27 17:05:53;;;;;;;0.90;0.50;;;;;;;23.97;47.80;100281.53;10339905;28;20053;-70
2022/06/27 17:10:55;;;;;;;1.27;0.52;;;;;;;23.91;47.95;100298.69;10332328;28;20053;-70
2022/06/27 17:15:57;;;;;;;0.80;0.55;;;;;;;23.89;48.12;100289.91;10343271;28;20463;-71
2022/06/27 17:20:59;;;;;;;1.07;0.90;;;;;;;23.91;47.98;100298.69;10350095;28;20042;-70
2022/06/27 17:26:00;;;;;;;1.55;0.60;;;;;;;23.91;48.66;100304.13;10334955;28;20184;-69
2022/06/27 17:31:04;;;;;;;1.90;0.63;;;;;;;23.93;48.40;100306.63;10366443;28;20049;-69
2022/06/27 17:36:06;;;;;;;1.55;0.50;;;;;;;23.91;48.08;100315.00;10379183;28;20053;-71
2022/06/27 17:41:09;;;;;;;1.88;0.80;;;;;;;23.87;48.10;100327.34;10354657;28;20133;-70
2022/06/27 17:46:10;;;;;;;;;;;;;;;23.80;48.06;100324.59;10353220;28;20107;-71
2022/06/27 17:51:12;;;;;;;3.47;2.60;;;;;;;23.76;48.55;100314.34;10352800;28;19943;-71
2022/06/27 17:56:14;;;;;;;2.22;1.00;;;;;;;23.78;48.73;100325.81;10343519;28;20061;-70
2022/06/27 18:01:16;;;;;;;2.93;0.80;;;;;;;23.75;48.44;100323.53;10341519;28;20076;-72
2022/06/27 18:06:37;;;;;;;1.65;0.90;;;;;;;23.65;49.07;100337.53;10340824;28;20508;-72
2022/06/27 18:11:38;;;;;;;1.77;1.05;;;;;;;23.60;48.66;100335.44;10344352;28;20058;-71
2022/06/27 18:16:40;;;;;;;1.25;0.70;;;;;;;23.48;49.45;100331.69;10344430;28;20053;-71
2022/06/27 18:21:42;;;;;;;0.80;0.60;;;;;;;23.46;49.85;100342.75;10340759;28;20148;-70
2022/06/27 18:26:43;;;;;;;1.02;0.60;;;;;;;23.43;50.21;100364.88;10336326;28;20057;-71
2022/06/27 18:31:45;;;;;;;2.03;1.00;;;;;;;23.30;50.25;100365.69;10353624;28;20046;-71
2022/06/27 18:36:47;;;;;;;1.70;0.60;;;;;;;23.24;50.25;100371.94;10352271;28;20056;-71
2022/06/27 18:41:48;;;;;;;2.20;0.75;;;;;;;23.23;50.75;100372.97;10352626;28;20077;-70
2022/06/27 18:46:50;;;;;;;1.75;0.63;;;;;;;23.26;50.61;100394.28;10361795;28;20651;-71
2022/06/27 18:51:51;;;;;;;2.47;0.93;;;;;;;23.19;51.02;100392.59;10356828;28;20053;-71
2022/06/27 18:56:53;;;;;;;1.67;0.70;;;;;;;23.17;51.39;100392.78;10346995;28;20053;-71
2022/06/27 19:01:54;;;;;;;1.88;0.90;;;;;;;23.11;51.70;100391.72;10362555;28;20088;-70
2022/06/27 19:06:58;;;;;;;4.18;0.95;;;;;;;23.10;51.26;100400.06;10346008;28;20178;-71
2022/06/27 19:11:59;;;;;;;1.67;0.75;;;;;;;23.08;51.66;100396.69;10349149;28;20120;-71
2022/06/27 19:17:02;;;;;;;2.42;0.93;;;;;;;22.99;51.38;100392.50;10352140;28;20049;-70
2022/06/27 19:22:03;;;;;;;0.93;0.83;;;;;;;22.88;52.45;100413.72;10343623;28;20054;-71
2022/06/27 19:27:05;;;;;;;0.82;0.70;;;;;;;22.82;52.75;100422.69;10339754;28;20053;-71
2022/06/27 19:32:06;;;;;;;0.80;0.50;;;;;;;22.72;53.77;100414.06;10346441;28;20054;-72
2022/06/27 19:37:08;;;;;;;0.80;0.70;;;;;;;22.49;53.98;100428.72;10345288;28;20137;-72
2022/06/27 19:42:10;;;;;;;0.75;0.50;;;;;;;22.16;54.77;100440.09;10341685;28;20073;-71
2022/06/27 19:47:11;;;;;;;1.65;0.63;;;;;;;21.98;54.82;100451.41;10343117;28;20045;-73
2022/06/27 19:52:13;;;;;;;1.42;0.73;;;;;;;21.79;54.36;100479.97;10341444;28;20120;-71
2022/06/27 19:57:14;;;;;;;1.20;0.60;;;;;;;21.70;54.57;100483.84;10344115;28;20053;-72
2022/06/27 20:02:16;;;;;;;0.98;0.40;;;;;;;21.54;54.91;100491.16;10286665;28;20118;-70
2022/06/27 20:07:27;;;;;;;1.30;0.75;;;;;;;21.58;54.29;100515.16;10321505;28;21025;-73
2022/06/27 20:12:28;;;;;;;0.60;0.30;;;;;;;21.48;53.42;100497.31;10325406;28;20049;-72
2022/06/27 20:17:30;;;;;;;0.60;0.30;;;;;;;21.49;52.38;100512.50;10339711;28;20042;-71
2022/06/27 20:22:31;;;;;;;2.40;0.30;;;;;;;21.48;52.31;100504.56;10342587;28;20041;-72
2022/06/27 20:27:33;;;;;;;0.52;0.20;;;;;;;21.19;51.43;100501.69;10321120;28;20057;-71
2022/06/27 20:32:35;;;;;;;0.22;0.10;;;;;;;21.09;52.65;100501.16;10337549;28;20057;-71
2022/06/27 20:37:39;;;;;;;1.20;0.20;;;;;;;21.12;51.22;100498.09;10346301;28;20064;-70
2022/06/27 20:42:43;;;;;;;0.75;0.20;;;;;;;20.95;51.71;100499.28;10346508;28;20682;-70
2022/06/27 20:47:44;;;;;;;0.40;0.10;;;;;;;20.98;52.05;100513.25;10339379;28;20865;-75
2022/06/27 20:52:49;;;;;;;0.98;0.30;;;;;;;20.82;51.11;100511.59;10316662;28;20055;-71
2022/06/27 20:57:51;;;;;;;1.45;0.47;;;;;;;21.03;51.67;100501.88;10345721;28;20063;-72
2022/06/27 21:02:52;;;;;;;0.43;0.25;;;;;;;21.08;51.59;100504.88;10343548;28;20041;-72
2022/06/27 21:13:14;;;;;;;1.17;0.38;;;;;;;20.64;52.93;100540.78;10345333;28;20057;-71
2022/06/27 21:18:15;;;;;;;0.85;0.50;;;;;;;20.44;52.92;100549.41;10342779;28;20771;-71
2022/06/27 21:23:17;;;;;;;0.77;0.30;;;;;;;20.35;53.31;100563.19;10345276;28;20116;-71
2022/06/27 21:28:18;;;;;;;0.75;0.43;;;;;;;20.27;54.79;100556.81;10352572;28;20051;-71
2022/06/27 21:33:19;;;;;;;1.10;0.50;;;;;;;20.34;54.65;100548.81;10358788;28;20042;-71
2022/06/27 21:38:21;;;;;;;1.23;0.65;;;;;;;20.55;53.47;100558.13;10347329;28;20128;-72
2022/06/27 21:43:22;;;;;;;1.00;0.30;;;;;;;20.53;54.21;100568.28;10348805;28;20048;-71
2022/06/27 21:48:24;;;;;;;0.68;0.32;;;;;;;20.69;54.36;100573.59;10347255;28;20453;-73
2022/06/27 21:53:26;;;;;;;0.95;0.45;;;;;;;20.76;53.49;100579.97;10343930;28;20060;-70
2022/06/27 21:58:28;;;;;;;0.75;0.40;;;;;;;20.77;53.54;100587.03;10344599;28;20863;-71
2022/06/27 22:03:30;;;;;;;1.42;0.70;;;;;;;20.75;53.91;100590.97;10358439;28;20061;-71
2022/06/27 22:08:32;;;;;;;2.13;0.45;;;;;;;20.73;54.80;100604.66;10352317;28;20292;-71
2022/06/27 22:13:33;;;;;;;1.35;0.50;;;;;;;20.59;54.56;100591.88;10350950;28;20055;-71
2022/06/27 22:18:34;;;;;;;1.10;0.65;;;;;;;20.46;55.99;100609.56;10350815;28;20291;-72
2022/06/27 22:23:36;;;;;;;2.05;0.52;;;;;;;20.43;55.00;100618.03;10354897;28;20521;-71
2022/06/27 22:28:37;;;;;;;1.80;0.82;;;;;;;20.34;55.18;100619.09;10351600;28;20191;-71
2022/06/27 22:33:39;;;;;;;2.65;1.30;;;;;;;20.43;54.85;100625.28;10353976;28;20160;-71
2022/06/27 22:38:40;;;;;;;0.65;0.65;;;;;;;20.46;54.71;100614.97;10352323;28;20526;-71
2022/06/27 22:43:41;;;;;;;0.82;0.77;;;;;;;20.46;54.61;100612.28;10355073;28;20095;-71
2022/06/27 22:48:43;;;;;;;2.33;1.05;;;;;;;20.51;54.45;100638.75;10366925;28;20080;-70
2022/06/27 22:53:44;;;;;;;1.60;0.75;;;;;;;20.49;55.34;100638.94;10351405;28;20132;-71
2022/06/27 22:58:45;;;;;;;1.65;0.73;;;;;;;20.44;55.19;100644.03;10358941;28;20054;-71
2022/06/27 23:03:47;;;;;;;1.45;1.10;;;;;;;20.38;54.29;100636.63;10367882;28;20227;-71
2022/06/27 23:08:50;;;;;;;1.35;0.75;;;;;;;20.22;54.97;100634.91;10354106;28;20098;-71
2022/06/27 23:13:51;;;;;;;1.00;0.50;;;;;;;20.22;54.87;100626.78;10354384;28;20155;-71
2022/06/27 23:18:53;;;;;;;1.17;0.85;;;;;;;20.14;55.75;100626.81;10346742;28;21074;-71
2022/06/27 23:23:54;;;;;;;2.80;1.00;;;;;;;19.95;55.91;100622.69;10346237;28;20164;-71
2022/06/27 23:28:56;;;;;;;1.98;0.70;;;;;;;19.84;56.91;100626.63;10350120;28;20135;-71